Time;durP1;ratioP1;P1;durP2;ratioP2;P2;SDS_P1;SDS_P2;PMS_P1;PMS_P2;Temp;Humidity;BMP_temperature;BMP_pressure;BME280_temperature;BME280_humidity;BME280_pressure;Samples;Min_cycle;Max_cycle;Signal;HPM_P1;HPM_P2
2020/12/30 00:00:55;;;;;;;22.95;10.70;;;;;;;3.02;68.14;98836.16;118972;1147;104607;-71
2020/12/30 00:03:23;;;;;;;22.97;11.03;;;;;;;2.99;68.03;98836.42;118998;1147;104540;-71
2020/12/30 00:05:51;;;;;;;22.73;12.03;;;;;;;2.95;67.88;98845.58;118970;1147;104473;-72
2020/12/30 00:08:19;;;;;;;22.97;11.07;;;;;;;2.89;68.81;98840.88;118978;1147;104456;-72
2020/12/30 00:10:47;;;;;;;24.57;11.73;;;;;;;2.84;67.98;98837.81;118946;1147;104495;-72
2020/12/30 00:13:16;;;;;;;22.80;11.60;;;;;;;2.78;67.45;98846.28;118999;1147;104614;-71
2020/12/30 00:15:45;;;;;;;21.43;10.40;;;;;;;2.73;68.16;98847.53;118952;1148;104535;-71
2020/12/30 00:18:13;;;;;;;17.83;9.00;;;;;;;2.66;68.14;98861.38;118930;1148;104553;-71
2020/12/30 00:20:41;;;;;;;19.83;10.00;;;;;;;2.60;67.96;98856.63;118912;1147;104526;-73
2020/12/30 00:23:09;;;;;;;21.17;9.80;;;;;;;2.52;68.13;98860.80;118905;1147;104537;-71
2020/12/30 00:25:37;;;;;;;23.63;11.07;;;;;;;2.50;68.53;98856.63;118803;1147;104514;-71
2020/12/30 00:28:05;;;;;;;20.87;10.20;;;;;;;2.49;69.25;98854.97;118925;1147;104998;-71
2020/12/30 00:30:33;;;;;;;21.20;9.60;;;;;;;2.50;68.43;98857.48;118784;1147;104518;-71
2020/12/30 00:33:01;;;;;;;20.73;10.33;;;;;;;2.53;69.07;98856.36;118604;1148;104700;-71
2020/12/30 00:35:29;;;;;;;21.10;9.73;;;;;;;2.53;68.85;98857.19;118907;1147;104640;-71
2020/12/30 00:37:57;;;;;;;18.90;9.60;;;;;;;2.57;69.41;98854.30;118956;1147;104505;-71
2020/12/30 00:40:25;;;;;;;21.53;10.47;;;;;;;2.61;67.98;98861.77;118837;1147;104451;-71
2020/12/30 00:42:54;;;;;;;18.00;9.75;;;;;;;2.64;69.32;98863.32;118879;1147;104639;-71
2020/12/30 00:45:22;;;;;;;18.70;9.60;;;;;;;2.62;67.85;98859.96;118745;1146;104661;-71
2020/12/30 00:47:51;;;;;;;19.10;9.10;;;;;;;2.61;69.14;98859.14;118645;1147;104451;-72
2020/12/30 00:50:19;;;;;;;19.60;9.23;;;;;;;2.58;67.61;98856.80;118484;1147;104594;-72
2020/12/30 00:52:49;;;;;;;21.73;9.00;;;;;;;2.50;68.39;98852.21;118476;1147;104563;-72
2020/12/30 00:55:18;;;;;;;18.63;9.03;;;;;;;2.47;69.06;98847.20;118515;1146;104455;-72
2020/12/30 00:57:53;;;;;;;17.60;8.53;;;;;;;2.45;68.24;98850.95;118670;1147;104561;-73
2020/12/30 01:00:21;;;;;;;19.83;9.30;;;;;;;2.45;69.13;98848.32;118805;1147;104587;-71
2020/12/30 01:03:08;;;;;;;19.90;9.10;;;;;;;2.46;68.15;98845.53;118759;1148;105452;-71
2020/12/30 01:05:37;;;;;;;20.50;10.40;;;;;;;2.47;68.25;98855.11;118856;1146;104481;-71
2020/12/30 01:08:05;;;;;;;19.90;10.53;;;;;;;2.48;67.47;98854.15;118769;1147;104541;-72
2020/12/30 01:10:33;;;;;;;21.73;11.30;;;;;;;2.49;69.25;98857.61;118834;1147;104471;-71
2020/12/30 01:13:01;;;;;;;17.90;9.93;;;;;;;2.49;67.84;98854.97;118515;1147;104544;-71
2020/12/30 01:15:29;;;;;;;21.50;10.87;;;;;;;2.48;67.49;98851.52;118917;1147;104524;-71
2020/12/30 01:17:57;;;;;;;19.13;9.67;;;;;;;2.47;68.98;98851.64;118766;1147;104549;-70
2020/12/30 01:20:25;;;;;;;18.00;9.33;;;;;;;2.48;67.68;98854.15;118367;1146;104476;-71
2020/12/30 01:22:54;;;;;;;18.07;9.60;;;;;;;2.47;67.47;98852.47;118396;1146;104605;-71
2020/12/30 01:25:22;;;;;;;20.00;9.67;;;;;;;2.45;67.51;98843.05;118469;1147;104566;-71
2020/12/30 01:27:50;;;;;;;18.07;9.40;;;;;;;2.46;68.65;98844.70;118610;1147;104559;-72
2020/12/30 01:30:18;;;;;;;21.10;10.20;;;;;;;2.44;68.23;98846.64;118341;1147;104454;-72
2020/12/30 01:32:46;;;;;;;19.83;8.97;;;;;;;2.44;69.00;98846.64;118844;1146;104537;-72
2020/12/30 01:35:14;;;;;;;17.40;8.33;;;;;;;2.47;67.58;98852.47;118992;1146;104528;-71
2020/12/30 01:37:43;;;;;;;19.07;8.80;;;;;;;2.49;68.00;98854.97;118977;1146;104549;-72
2020/12/30 01:40:11;;;;;;;19.00;9.00;;;;;;;2.51;67.54;98867.02;118974;1146;104551;-72
2020/12/30 01:42:45;;;;;;;19.03;9.67;;;;;;;2.52;69.17;98866.07;119012;1148;104542;-74
2020/12/30 01:45:14;;;;;;;19.47;10.03;;;;;;;2.50;68.17;98867.16;118988;1147;104486;-72
2020/12/30 01:47:44;;;;;;;19.97;10.20;;;;;;;2.47;68.93;98870.08;118628;1146;104493;-72
2020/12/30 01:50:14;;;;;;;19.57;9.73;;;;;;;2.43;68.97;98876.59;118586;1146;104498;-71
2020/12/30 01:52:43;;;;;;;16.05;9.20;;;;;;;2.41;69.20;98873.25;118911;1146;104632;-72
2020/12/30 01:55:12;;;;;;;18.77;8.63;;;;;;;2.40;68.57;98871.58;118880;1147;104567;-72
2020/12/30 01:57:40;;;;;;;18.10;9.33;;;;;;;2.39;68.67;98875.16;118924;1147;104556;-73
2020/12/30 02:00:10;;;;;;;16.27;8.73;;;;;;;2.35;67.49;98882.52;118462;1148;104486;-73
2020/12/30 02:02:41;;;;;;;19.87;9.13;;;;;;;2.30;68.31;98880.27;118848;1148;104455;-74
2020/12/30 02:05:10;;;;;;;17.70;9.10;;;;;;;2.31;67.90;98871.42;118961;1148;104454;-72
2020/12/30 02:07:39;;;;;;;16.50;7.95;;;;;;;2.33;68.31;98881.83;118973;1147;104502;-72
2020/12/30 02:10:07;;;;;;;18.53;8.80;;;;;;;2.33;68.41;98881.83;118947;1147;104468;-72
2020/12/30 02:12:36;;;;;;;17.27;8.97;;;;;;;2.34;69.26;98879.03;118997;1147;104589;-72
2020/12/30 02:15:05;;;;;;;18.10;9.25;;;;;;;2.38;68.57;98878.78;119013;1146;105349;-72
2020/12/30 02:17:33;;;;;;;19.87;9.73;;;;;;;2.39;68.73;98883.91;118931;1147;104476;-73
2020/12/30 02:20:01;;;;;;;18.10;9.30;;;;;;;2.40;68.88;98882.93;118717;1148;104473;-72
2020/12/30 02:22:31;;;;;;;19.20;9.17;;;;;;;2.40;68.38;98877.67;118988;1147;104572;-73
2020/12/30 02:24:59;;;;;;;18.65;8.95;;;;;;;2.43;68.01;98876.59;118919;1148;104523;-73
2020/12/30 02:27:27;;;;;;;17.97;8.67;;;;;;;2.45;68.98;98887.81;118943;1147;104550;-72
2020/12/30 02:29:55;;;;;;;20.50;9.57;;;;;;;2.48;68.44;98888.37;118916;1148;104538;-72
2020/12/30 02:32:23;;;;;;;16.73;8.93;;;;;;;2.53;68.82;98882.70;118972;1147;104652;-72
2020/12/30 02:34:51;;;;;;;19.50;10.65;;;;;;;2.55;69.24;98875.48;118968;1147;104568;-73
2020/12/30 02:37:21;;;;;;;18.73;10.27;;;;;;;2.53;68.55;98885.33;118958;1146;104549;-72
2020/12/30 02:39:50;;;;;;;20.97;11.33;;;;;;;2.51;69.16;98874.09;118991;1148;104467;-72
2020/12/30 02:42:18;;;;;;;18.77;10.27;;;;;;;2.50;69.25;98867.16;118968;1147;105877;-71
2020/12/30 02:44:46;;;;;;;18.47;10.23;;;;;;;2.54;67.60;98872.03;118762;1147;104479;-72
2020/12/30 02:47:14;;;;;;;15.57;8.80;;;;;;;2.56;69.23;98864.00;118624;1148;104453;-70
2020/12/30 02:49:42;;;;;;;17.40;8.95;;;;;;;2.56;68.16;98866.64;118955;1147;104476;-71
2020/12/30 02:52:10;;;;;;;18.77;9.20;;;;;;;2.57;69.04;98865.65;118979;1148;104626;-71
2020/12/30 02:54:38;;;;;;;16.93;9.27;;;;;;;2.59;68.68;98868.98;118965;1146;104493;-71
2020/12/30 02:57:06;;;;;;;19.23;9.03;;;;;;;2.55;68.56;98863.14;118960;1147;104474;-71
2020/12/30 02:59:34;;;;;;;16.65;8.50;;;;;;;2.51;68.21;98866.20;118928;1148;104465;-69
2020/12/30 03:02:02;;;;;;;18.43;9.03;;;;;;;2.48;67.47;98874.36;118891;1147;104537;-71
2020/12/30 03:04:31;;;;;;;13.40;7.40;;;;;;;2.43;67.56;98871.32;118770;1147;104562;-71
2020/12/30 03:06:59;;;;;;;17.43;9.10;;;;;;;2.39;68.08;98864.63;118847;1147;104472;-71
2020/12/30 03:09:27;;;;;;;16.90;8.70;;;;;;;2.35;68.16;98875.45;118860;1147;104457;-71
2020/12/30 03:11:55;;;;;;;16.13;8.80;;;;;;;2.33;68.15;98874.75;118895;1146;104668;-71
2020/12/30 03:14:24;;;;;;;19.50;9.55;;;;;;;2.29;68.83;98870.73;118853;1148;104548;-70
2020/12/30 03:16:52;;;;;;;14.77;8.33;;;;;;;2.26;68.43;98881.52;118730;1146;104955;-70
2020/12/30 03:19:20;;;;;;;15.37;8.50;;;;;;;2.23;68.36;98878.31;118752;1147;104789;-71
2020/12/30 03:21:49;;;;;;;15.60;8.47;;;;;;;2.19;68.15;98880.37;118386;1146;104606;-71
2020/12/30 03:24:17;;;;;;;17.20;9.57;;;;;;;2.18;68.02;98878.73;118494;1146;104512;-70
2020/12/30 03:26:45;;;;;;;18.93;8.80;;;;;;;2.13;68.29;98887.00;118821;1148;104583;-71
2020/12/30 03:29:13;;;;;;;17.37;9.13;;;;;;;2.12;68.18;98895.05;118908;1147;104546;-70
2020/12/30 03:31:41;;;;;;;15.67;8.40;;;;;;;2.11;68.47;98888.11;118907;1147;104627;-70
2020/12/30 03:34:10;;;;;;;19.53;10.07;;;;;;;2.09;68.08;98890.05;118841;1148;104550;-70
2020/12/30 03:36:38;;;;;;;21.30;10.50;;;;;;;2.06;68.39;98892.92;118824;1147;104604;-70
2020/12/30 03:39:07;;;;;;;17.70;8.75;;;;;;;2.04;68.27;98887.82;118856;1147;104500;-72
2020/12/30 03:41:35;;;;;;;18.60;9.35;;;;;;;2.04;67.33;98886.97;118891;1148;104593;-70
2020/12/30 03:44:03;;;;;;;15.83;8.97;;;;;;;2.05;67.25;98888.64;118844;1147;104467;-70
2020/12/30 03:46:31;;;;;;;23.10;10.45;;;;;;;2.06;67.82;98885.89;118859;1146;104447;-71
2020/12/30 03:48:59;;;;;;;21.30;10.00;;;;;;;2.07;68.39;98884.08;118906;1148;104550;-70
2020/12/30 03:51:28;;;;;;;18.20;9.27;;;;;;;2.03;68.66;98890.58;118851;1148;104627;-70
2020/12/30 03:53:56;;;;;;;18.17;10.10;;;;;;;1.96;68.26;98885.00;118775;1147;104556;-70
2020/12/30 03:56:24;;;;;;;17.60;9.63;;;;;;;1.91;67.53;98882.77;118798;1148;104454;-71
2020/12/30 03:58:53;;;;;;;18.07;9.93;;;;;;;1.82;67.72;98883.55;118853;1147;104544;-70
2020/12/30 04:01:21;;;;;;;16.27;8.97;;;;;;;1.74;68.82;98878.95;118864;1148;104556;-70
2020/12/30 04:03:49;;;;;;;32.57;17.17;;;;;;;1.68;68.19;98870.77;118850;1147;104539;-71
2020/12/30 04:06:17;;;;;;;28.25;14.35;;;;;;;1.66;68.22;98875.32;118834;1147;104581;-70
2020/12/30 04:08:45;;;;;;;24.55;11.35;;;;;;;1.64;68.52;98895.66;118640;1147;104524;-70
2020/12/30 04:11:13;;;;;;;25.60;12.20;;;;;;;1.64;68.35;98882.51;118419;1148;104641;-70
2020/12/30 04:13:41;;;;;;;31.83;14.73;;;;;;;1.60;68.52;98878.45;118864;1148;104553;-70
2020/12/30 04:16:10;;;;;;;22.85;11.10;;;;;;;1.55;67.48;98890.19;118410;1147;104451;-72
2020/12/30 04:18:38;;;;;;;51.85;24.70;;;;;;;1.53;67.37;98888.66;118611;1146;104514;-71
2020/12/30 04:21:06;;;;;;;31.30;14.57;;;;;;;1.47;68.14;98884.75;118851;1146;104525;-70
2020/12/30 04:23:34;;;;;;;26.27;12.93;;;;;;;1.46;68.18;98883.07;118667;1147;104576;-70
2020/12/30 04:26:02;;;;;;;21.77;11.63;;;;;;;1.44;68.04;98884.17;118306;1146;104550;-70
2020/12/30 04:28:30;;;;;;;20.80;11.07;;;;;;;1.44;68.49;98885.00;118349;1147;104528;-71
2020/12/30 04:30:58;;;;;;;20.10;10.60;;;;;;;1.43;68.18;98882.52;118389;1146;104540;-70
2020/12/30 04:33:27;;;;;;;19.05;10.00;;;;;;;1.43;67.33;98890.41;118768;1147;104468;-72
2020/12/30 04:35:55;;;;;;;19.30;9.60;;;;;;;1.40;68.55;98891.47;118507;1147;104825;-73
2020/12/30 04:38:23;;;;;;;21.63;10.57;;;;;;;1.37;67.55;98889.13;118712;1146;104496;-72
2020/12/30 04:40:51;;;;;;;18.87;10.07;;;;;;;1.39;67.70;98897.70;118377;1146;104588;-70
2020/12/30 04:43:20;;;;;;;18.23;9.93;;;;;;;1.36;67.54;98893.52;118381;1147;104441;-71
2020/12/30 04:45:48;;;;;;;24.40;13.53;;;;;;;1.33;68.21;98890.34;118644;1148;104465;-70
2020/12/30 04:48:17;;;;;;;26.00;14.25;;;;;;;1.30;68.22;98877.45;118838;1147;104495;-70
2020/12/30 04:50:45;;;;;;;18.00;10.55;;;;;;;1.30;68.09;98891.41;118842;1148;104563;-70
2020/12/30 04:53:14;;;;;;;22.23;11.60;;;;;;;1.31;67.83;98886.98;118835;1147;104583;-71
2020/12/30 04:55:43;;;;;;;20.53;10.33;;;;;;;1.30;68.39;98890.58;118409;1146;104549;-71
2020/12/30 04:58:12;;;;;;;21.35;12.40;;;;;;;1.32;67.50;98893.92;118348;1146;104509;-70
2020/12/30 05:00:41;;;;;;;24.73;14.67;;;;;;;1.34;68.29;98894.62;118760;1146;104668;-71
2020/12/30 05:03:10;;;;;;;25.13;13.40;;;;;;;1.34;67.20;98897.25;118333;1147;104492;-71
2020/12/30 05:05:40;;;;;;;27.80;14.80;;;;;;;1.33;68.39;98900.85;118381;1146;104473;-70
2020/12/30 05:08:10;;;;;;;26.67;14.23;;;;;;;1.34;68.24;98910.39;118506;1146;104963;-70
2020/12/30 05:10:40;;;;;;;28.83;15.40;;;;;;;1.32;68.23;98905.25;118811;1147;104631;-70
2020/12/30 05:13:09;;;;;;;38.25;20.35;;;;;;;1.37;68.86;98891.75;118517;1146;104498;-70
2020/12/30 05:15:37;;;;;;;51.63;29.47;;;;;;;1.41;68.83;98908.92;118417;1147;104452;-70
2020/12/30 05:18:07;;;;;;;63.37;36.30;;;;;;;1.43;67.89;98904.37;118839;1147;104551;-70
2020/12/30 05:20:35;;;;;;;70.13;38.53;;;;;;;1.48;68.92;98911.86;118873;1147;104563;-71
2020/12/30 05:23:05;;;;;;;68.27;36.33;;;;;;;1.52;68.99;98906.23;118848;1148;104546;-69
2020/12/30 05:25:35;;;;;;;62.13;33.83;;;;;;;1.59;68.59;98909.17;118456;1147;104912;-70
2020/12/30 05:28:05;;;;;;;67.03;36.73;;;;;;;1.67;67.76;98914.61;118446;1146;104544;-70
2020/12/30 05:30:34;;;;;;;60.67;32.83;;;;;;;1.73;67.96;98905.37;118686;1146;104571;-71
2020/12/30 05:33:03;;;;;;;63.53;33.90;;;;;;;1.75;68.94;98900.81;118390;1146;104559;-71
2020/12/30 05:35:32;;;;;;;55.23;30.87;;;;;;;1.80;67.85;98897.81;118387;1147;104500;-71
2020/12/30 05:38:01;;;;;;;62.37;33.63;;;;;;;1.86;68.50;98897.28;118515;1147;104593;-71
2020/12/30 05:40:31;;;;;;;53.97;29.13;;;;;;;1.91;68.65;98895.92;118443;1147;104602;-71
2020/12/30 05:43:12;;;;;;;58.80;30.80;;;;;;;1.99;68.70;98899.70;118484;1146;104494;-73
2020/12/30 05:45:48;;;;;;;53.00;27.00;;;;;;;2.04;68.93;98902.75;118483;1147;104559;-71
2020/12/30 05:48:17;;;;;;;90.60;37.10;;;;;;;2.10;69.28;98907.51;118348;1147;104551;-71
2020/12/30 05:50:50;;;;;;;66.57;28.10;;;;;;;2.14;67.70;98914.17;118895;1147;104523;-71
2020/12/30 05:53:19;;;;;;;45.63;22.17;;;;;;;2.14;68.65;98924.70;118906;1147;104476;-72
2020/12/30 05:55:51;;;;;;;45.17;23.30;;;;;;;2.18;68.60;98923.46;118632;1146;104550;-72
2020/12/30 05:58:19;;;;;;;35.88;16.85;;;;;;;2.24;68.72;98936.08;118736;1146;104578;-71
2020/12/30 06:00:48;;;;;;;35.50;17.80;;;;;;;2.30;67.80;98932.91;118667;1147;104559;-69
2020/12/30 06:03:27;;;;;;;41.27;18.90;;;;;;;2.36;68.33;98937.64;118619;1146;104594;-71
2020/12/30 06:05:55;;;;;;;91.77;42.70;;;;;;;2.42;69.56;98932.82;118607;1147;104591;-70
2020/12/30 06:08:27;;;;;;;93.40;42.17;;;;;;;2.46;68.65;98939.48;118762;1147;104473;-69
2020/12/30 06:10:59;;;;;;;103.07;42.37;;;;;;;2.48;69.50;98942.81;118846;1146;104636;-70
2020/12/30 06:13:37;;;;;;;103.67;40.53;;;;;;;2.50;68.01;98940.87;118703;1147;104550;-70
2020/12/30 06:16:12;;;;;;;104.83;42.30;;;;;;;2.51;68.72;98932.84;118667;1147;104528;-70
2020/12/30 06:18:42;;;;;;;76.40;30.80;;;;;;;2.52;69.64;98941.57;118380;1146;104455;-71
2020/12/30 06:21:12;;;;;;;113.60;41.20;;;;;;;2.53;69.16;98945.88;118388;1147;104557;-73
2020/12/30 06:23:44;;;;;;;96.65;36.65;;;;;;;2.57;69.85;98946.45;118741;1146;104525;-70
2020/12/30 06:26:17;;;;;;;;;;;;;;;2.62;68.78;98949.50;118613;1146;104476;-70
2020/12/30 06:28:53;;;;;;;85.30;35.33;;;;;;;2.67;68.42;98953.39;118712;1147;104529;-72
2020/12/30 06:31:22;;;;;;;75.63;32.17;;;;;;;2.72;69.41;98961.73;118513;1147;104568;-73
2020/12/30 06:33:50;;;;;;;69.63;31.23;;;;;;;2.77;68.22;98963.13;118473;1146;104550;-73
2020/12/30 06:36:25;;;;;;;69.00;32.27;;;;;;;2.80;69.19;98962.88;118432;1145;104531;-73
2020/12/30 06:38:53;;;;;;;65.65;31.00;;;;;;;2.84;70.16;98961.62;118844;1146;104558;-73
2020/12/30 06:41:21;;;;;;;58.83;27.50;;;;;;;2.86;69.25;98964.95;118520;1147;104534;-71
2020/12/30 06:43:50;;;;;;;58.67;26.20;;;;;;;2.89;68.55;98962.89;118725;1148;104550;-71
2020/12/30 06:46:36;;;;;;;50.65;23.80;;;;;;;2.93;69.16;98966.91;118784;1146;104549;-71
2020/12/30 06:49:05;;;;;;;47.10;21.30;;;;;;;2.97;69.62;98969.29;118713;1146;104483;-71
2020/12/30 06:51:38;;;;;;;32.37;16.30;;;;;;;3.02;69.58;98972.33;118861;1148;104666;-70
2020/12/30 06:54:07;;;;;;;34.43;15.73;;;;;;;3.07;69.36;98975.39;118670;1147;104466;-70
2020/12/30 06:56:40;;;;;;;32.23;16.40;;;;;;;3.13;69.35;98980.11;118365;1146;104487;-69
2020/12/30 06:59:09;;;;;;;23.67;12.20;;;;;;;3.18;70.07;98985.00;118449;1147;104885;-71
2020/12/30 07:01:57;;;;;;;21.85;11.25;;;;;;;3.26;70.10;98969.31;118901;1146;104618;-69
2020/12/30 07:04:27;;;;;;;18.85;10.55;;;;;;;3.35;70.24;98976.40;118458;1146;104503;-71
2020/12/30 07:06:56;;;;;;;24.63;11.60;;;;;;;3.41;70.76;98975.84;118464;1147;104874;-70
2020/12/30 07:09:32;;;;;;;123.17;41.43;;;;;;;3.47;70.37;98967.37;118460;1147;104518;-69
2020/12/30 07:12:02;;;;;;;103.53;35.20;;;;;;;3.58;70.62;98962.91;118594;1147;104585;-71
2020/12/30 07:14:31;;;;;;;78.50;26.00;;;;;;;3.66;71.02;98955.15;118411;1147;104561;-71
2020/12/30 07:17:01;;;;;;;50.17;17.53;;;;;;;3.74;70.91;98948.18;118837;1147;104454;-70
2020/12/30 07:19:31;;;;;;;54.43;19.13;;;;;;;3.83;71.52;98949.14;118839;1146;104473;-69
2020/12/30 07:22:06;;;;;;;41.73;15.57;;;;;;;3.89;71.39;98953.85;118760;1147;104568;-69
2020/12/30 07:24:39;;;;;;;17.17;8.67;;;;;;;3.93;71.27;98947.31;118845;1147;104671;-69
2020/12/30 07:27:09;;;;;;;18.43;8.77;;;;;;;3.99;71.32;98953.83;118875;1147;104488;-69
2020/12/30 07:29:37;;;;;;;17.23;7.60;;;;;;;4.04;71.28;98941.04;118868;1146;104921;-69
2020/12/30 07:32:07;;;;;;;16.23;7.57;;;;;;;4.12;71.79;98941.14;118878;1147;104928;-70
2020/12/30 07:34:39;;;;;;;14.40;7.83;;;;;;;4.21;71.83;98938.61;118864;1147;104479;-69
2020/12/30 07:37:08;;;;;;;11.90;6.80;;;;;;;4.29;71.97;98944.84;118446;1147;104602;-70
2020/12/30 07:39:39;;;;;;;12.73;6.60;;;;;;;4.37;71.68;98953.83;118397;1146;104447;-68
2020/12/30 07:42:08;;;;;;;11.37;6.27;;;;;;;4.42;71.57;98946.30;118747;1146;104466;-68
2020/12/30 07:44:42;;;;;;;9.40;5.47;;;;;;;4.46;71.79;98947.67;118878;1146;104562;-68
2020/12/30 07:47:11;;;;;;;12.57;6.47;;;;;;;4.49;71.66;98936.83;118810;1146;105617;-67
2020/12/30 07:49:39;;;;;;;8.75;5.25;;;;;;;4.56;71.79;98932.63;118516;1146;104473;-68
2020/12/30 07:52:07;;;;;;;11.27;6.03;;;;;;;4.62;71.78;98939.11;120333;1147;104535;-68
2020/12/30 07:54:36;;;;;;;15.10;7.55;;;;;;;4.67;71.88;98929.76;118678;1147;104626;-66
2020/12/30 07:57:05;;;;;;;12.70;5.47;;;;;;;4.75;71.84;98933.48;118691;1147;104828;-68
2020/12/30 07:59:35;;;;;;;13.37;6.40;;;;;;;4.78;71.86;98927.91;118711;1147;104556;-68
2020/12/30 08:02:04;;;;;;;11.60;5.57;;;;;;;4.80;71.94;98920.66;118687;1148;104562;-71
2020/12/30 08:04:34;;;;;;;9.90;4.50;;;;;;;4.82;71.63;98921.34;118823;1147;104549;-68
2020/12/30 08:07:05;;;;;;;7.87;4.07;;;;;;;4.84;71.94;98919.38;118934;1147;104465;-66
2020/12/30 08:09:34;;;;;;;6.95;3.90;;;;;;;4.87;72.08;98925.20;118284;1147;104553;-67
2020/12/30 08:12:04;;;;;;;8.03;4.80;;;;;;;4.93;72.34;98923.78;118517;1147;104576;-70
2020/12/30 08:14:34;;;;;;;6.80;4.27;;;;;;;4.99;72.13;98922.34;118264;1147;104497;-66
2020/12/30 08:17:05;;;;;;;6.65;3.80;;;;;;;5.05;71.85;98925.20;118899;1146;104505;-65
2020/12/30 08:19:36;;;;;;;7.35;3.95;;;;;;;5.13;72.20;98927.09;118776;1148;104454;-65
2020/12/30 08:22:10;;;;;;;6.87;4.12;;;;;;;5.19;71.93;98929.13;118889;1147;105041;-69
2020/12/30 08:24:40;;;;;;;7.43;4.53;;;;;;;5.25;72.34;98919.77;118865;1147;104470;-67
2020/12/30 08:27:09;;;;;;;8.17;4.27;;;;;;;5.36;71.84;98921.36;118857;1147;104463;-67
2020/12/30 08:29:39;;;;;;;8.63;5.50;;;;;;;5.42;71.57;98926.85;118879;1147;104463;-67
2020/12/30 08:32:23;;;;;;;15.70;9.67;;;;;;;5.53;71.66;98928.44;118922;1148;104584;-68
2020/12/30 08:34:55;;;;;;;11.15;7.00;;;;;;;5.64;71.41;98932.64;118869;1147;104954;-72
2020/12/30 08:37:23;;;;;;;;;;;;;;;5.67;71.88;98927.05;118901;1147;104544;-66
2020/12/30 08:40:06;;;;;;;11.90;6.65;;;;;;;5.69;71.95;98935.66;118381;1147;104614;-67
2020/12/30 08:42:58;;;;;;;13.13;7.73;;;;;;;5.68;72.51;98929.55;118360;1147;104536;-68
2020/12/30 08:45:29;;;;;;;12.33;8.33;;;;;;;5.68;71.81;98931.38;118874;1147;104479;-68
2020/12/30 08:47:58;;;;;;;13.93;8.47;;;;;;;5.65;71.83;98931.67;118818;1147;104604;-67
2020/12/30 08:50:27;;;;;;;14.40;8.50;;;;;;;5.65;71.66;98926.37;118870;1147;104490;-67
2020/12/30 08:52:56;;;;;;;17.80;11.83;;;;;;;5.66;72.56;98928.88;118971;1148;104559;-66
2020/12/30 08:55:24;;;;;;;19.20;13.25;;;;;;;5.70;72.74;98919.64;118879;1147;104626;-70
2020/12/30 08:57:52;;;;;;;24.63;15.20;;;;;;;5.76;72.70;98923.48;118655;1147;104450;-68
2020/12/30 09:00:21;;;;;;;25.90;17.63;;;;;;;5.79;72.01;98925.80;118878;1147;104452;-69
2020/12/30 09:02:50;;;;;;;19.53;12.80;;;;;;;5.80;71.97;98922.19;118851;1147;104612;-70
2020/12/30 09:05:27;;;;;;;21.40;13.75;;;;;;;5.80;71.93;98919.53;118875;1147;104901;-71
2020/12/30 09:08:10;;;;;;;20.90;13.20;;;;;;;5.80;71.67;98918.71;118861;1148;104557;-66
2020/12/30 09:10:38;;;;;;;20.15;12.25;;;;;;;5.82;72.79;98920.20;118721;1147;104468;-67
2020/12/30 09:13:13;;;;;;;17.60;12.03;;;;;;;5.87;72.55;98915.29;118925;1147;104624;-71
2020/12/30 09:15:41;;;;;;;20.07;14.23;;;;;;;5.92;72.81;98920.10;118850;1147;105062;-71
2020/12/30 09:18:12;;;;;;;20.37;12.77;;;;;;;5.96;72.24;98921.48;118889;1147;104470;-69
2020/12/30 09:20:40;;;;;;;19.90;13.73;;;;;;;5.99;72.88;98920.36;118836;1147;104449;-68
2020/12/30 09:23:10;;;;;;;35.00;20.37;;;;;;;6.02;71.89;98920.84;118700;1147;104517;-68
2020/12/30 09:25:41;;;;;;;37.05;21.10;;;;;;;6.02;71.86;98909.44;118822;1147;104541;-69
2020/12/30 09:28:17;;;;;;;29.37;15.53;;;;;;;5.99;72.31;98920.36;118455;1147;104456;-69
2020/12/30 09:30:46;;;;;;;21.60;11.97;;;;;;;5.93;72.13;98918.28;118646;1148;104566;-69
2020/12/30 09:33:16;;;;;;;25.83;13.27;;;;;;;5.92;72.41;98911.34;119768;1147;104634;-68
2020/12/30 09:35:45;;;;;;;22.13;13.13;;;;;;;5.90;72.21;98914.14;118617;1147;104533;-70
2020/12/30 09:38:18;;;;;;;27.53;14.90;;;;;;;5.93;72.47;98915.63;118582;1147;104470;-69
2020/12/30 09:40:48;;;;;;;24.57;13.53;;;;;;;5.95;73.06;98922.48;118863;1148;104547;-70
2020/12/30 09:43:18;;;;;;;30.77;19.40;;;;;;;5.97;72.54;98917.04;118838;1147;104622;-69
2020/12/30 09:45:47;;;;;;;50.73;28.67;;;;;;;5.99;71.86;98912.41;118621;1148;104611;-71
2020/12/30 09:48:17;;;;;;;47.13;24.73;;;;;;;5.99;71.86;98915.06;118423;1147;104884;-70
2020/12/30 09:50:47;;;;;;;47.05;21.80;;;;;;;6.00;72.52;98916.70;118807;1147;104461;-71
2020/12/30 09:53:16;;;;;;;87.05;46.40;;;;;;;5.98;71.82;98929.27;119066;1146;104742;-69
2020/12/30 09:55:45;;;;;;;45.47;25.13;;;;;;;5.95;72.21;98932.19;118058;1147;104908;-71
2020/12/30 09:58:14;;;;;;;55.60;29.37;;;;;;;5.95;73.06;98932.19;118683;1146;104477;-75
2020/12/30 10:00:43;;;;;;;51.90;27.53;;;;;;;5.94;72.99;98933.19;118957;1147;104583;-70
2020/12/30 10:03:11;;;;;;;55.75;28.60;;;;;;;5.93;72.41;98927.08;119025;1147;104634;-70
2020/12/30 10:05:39;;;;;;;53.13;27.43;;;;;;;5.96;72.99;98925.95;118641;1147;104556;-69
2020/12/30 10:08:07;;;;;;;53.97;28.83;;;;;;;5.96;73.02;98931.25;118722;1147;104484;-71
2020/12/30 10:10:35;;;;;;;53.10;27.60;;;;;;;5.92;73.06;98927.22;118884;1147;104471;-69
2020/12/30 10:13:04;;;;;;;51.35;26.65;;;;;;;5.90;72.98;98930.02;118764;1148;104633;-71
2020/12/30 10:15:32;;;;;;;62.50;34.77;;;;;;;5.92;72.00;98937.81;118861;1148;104553;-72
2020/12/30 10:18:01;;;;;;;45.83;26.67;;;;;;;5.94;72.39;98927.89;118438;1147;104462;-72
2020/12/30 10:20:29;;;;;;;39.87;23.00;;;;;;;5.96;72.19;98924.13;118817;1148;104473;-71
2020/12/30 10:22:58;;;;;;;41.00;23.43;;;;;;;5.96;72.40;98910.06;119159;1147;104719;-71
2020/12/30 10:25:26;;;;;;;43.77;26.13;;;;;;;5.93;72.64;98915.63;118706;1148;104632;-72
2020/12/30 10:27:54;;;;;;;61.93;33.87;;;;;;;5.93;72.68;98918.28;118898;1147;104480;-72
2020/12/30 10:30:22;;;;;;;74.57;34.83;;;;;;;5.93;72.29;98905.89;118910;1147;104478;-72
2020/12/30 10:32:50;;;;;;;70.37;34.67;;;;;;;5.97;72.76;98890.56;118851;1147;104607;-70
2020/12/30 10:35:18;;;;;;;52.40;28.17;;;;;;;6.03;72.37;98892.58;118334;1147;106051;-75
2020/12/30 10:38:04;;;;;;;53.80;31.33;;;;;;;6.09;72.27;98886.64;118602;1148;104870;-74
2020/12/30 10:40:37;;;;;;;51.43;32.10;;;;;;;6.17;73.19;98884.02;118898;1146;104450;-72
2020/12/30 10:43:05;;;;;;;52.37;29.57;;;;;;;6.22;72.28;98880.91;119127;1147;104540;-72
2020/12/30 10:45:33;;;;;;;51.85;29.30;;;;;;;6.28;72.91;98881.09;119077;1146;104497;-72
2020/12/30 10:48:01;;;;;;;62.55;35.95;;;;;;;6.31;73.27;98876.47;118758;1147;104513;-73
2020/12/30 10:50:30;;;;;;;232.20;144.10;;;;;;;6.32;73.34;98878.14;119637;1147;104562;-72
2020/12/30 10:52:58;;;;;;;79.67;44.60;;;;;;;6.31;73.07;98879.12;119104;1147;104617;-73
2020/12/30 10:55:26;;;;;;;179.55;103.45;;;;;;;6.33;73.55;98871.84;119200;1147;104550;-76
2020/12/30 10:57:54;;;;;;;156.63;84.73;;;;;;;6.35;72.54;98867.20;119085;1147;104825;-77
2020/12/30 11:00:22;;;;;;;91.63;46.57;;;;;;;6.38;72.41;98866.90;118818;1148;104553;-78
2020/12/30 11:02:50;;;;;;;79.75;43.35;;;;;;;6.38;72.46;98880.14;119062;1147;104597;-72
2020/12/30 11:05:18;;;;;;;78.20;46.30;;;;;;;6.37;72.40;98875.82;118900;1147;104704;-76
2020/12/30 11:07:47;;;;;;;82.93;51.93;;;;;;;6.35;72.83;98870.70;119160;1147;104527;-75
2020/12/30 11:10:15;;;;;;;67.37;38.50;;;;;;;6.34;72.63;98860.27;118804;1147;104467;-76
2020/12/30 11:12:43;;;;;;;80.37;42.77;;;;;;;6.33;73.13;98863.89;118987;1147;104545;-76
2020/12/30 11:15:11;;;;;;;83.33;47.93;;;;;;;6.32;72.37;98873.66;118977;1148;104511;-75
2020/12/30 11:17:39;;;;;;;78.70;44.87;;;;;;;6.33;73.25;98864.70;119036;1147;104470;-75
2020/12/30 11:20:07;;;;;;;69.93;39.20;;;;;;;6.38;73.32;98861.60;119150;1147;104903;-74
2020/12/30 11:22:35;;;;;;;60.97;33.80;;;;;;;6.43;72.34;98856.66;119222;1147;104495;-75